Time,TemperatureF,DewpointF,PressureIn,WindDirection,WindDirectionDegrees,WindSpeedMPH,WindSpeedGustMPH,Humidity,HourlyPrecipIn,Conditions,Clouds,dailyrainin,SolarRadiationWatts/m^2,SoftwareType,DateUTC
2013-02-23 00:00:00,27.9,21.0,30.27,South,188,5.0,5.0,75,0.00,CLR,,0.00,0.0,WeatherDisplay:10.37,2013-02-23 05:00:00,
2013-02-23 00:01:00,27.9,21.0,30.27,South,190,4.6,4.6,75,0.00,CLR,,0.00,0.0,WeatherDisplay:10.37,2013-02-23 05:01:00,
2013-02-23 00:06:00,27.9,21.0,30.26,South,188,4.6,4.6,75,0.00,CLR,,0.00,0.0,WeatherDisplay:10.37,2013-02-23 05:06:00,
2013-02-23 00:11:00,27.9,21.0,30.26,South,191,3.5,3.5,75,0.00,CLR,,0.00,0.0,WeatherDisplay:10.37,2013-02-23 05:11:00,
2013-02-23 00:16:00,27.9,21.3,30.26,South,188,3.5,3.5,76,0.00,CLR,,0.00,0.0,WeatherDisplay:10.37,2013-02-23 05:16:00,
2013-02-23 00:21:00,27.9,21.3,30.26,South,175,2.3,2.3,76,0.00,CLR,,0.00,0.0,WeatherDisplay:10.37,2013-02-23 05:21:00,
2013-02-23 00:26:00,27.9,21.3,30.26,SSW,197,6.9,6.9,76,0.00,CLR,,0.00,0.0,WeatherDisplay:10.37,2013-02-23 05:26:00,
2013-02-23 00:31:00,28.0,21.4,30.26,SSW,202,3.5,3.5,76,0.00,CLR,,0.00,0.0,WeatherDisplay:10.37,2013-02-23 05:31:00,
2013-02-23 00:36:00,28.0,21.4,30.26,SW,219,2.3,2.3,76,0.00,CLR,,0.00,0.0,WeatherDisplay:10.37,2013-02-23 05:36:00,
2013-02-23 00:41:00,28.0,21.4,30.25,South,190,4.6,4.6,76,0.00,CLR,,0.00,0.0,WeatherDisplay:10.37,2013-02-23 05:41:00,
2013-02-23 00:46:00,28.0,21.7,30.25,South,188,5.8,5.8,77,0.00,CLR,,0.00,0.0,WeatherDisplay:10.37,2013-02-23 05:46:00,
2013-02-23 00:51:00,28.1,21.8,30.25,SSW,205,5.8,5.8,77,0.00,CLR,,0.00,0.0,WeatherDisplay:10.37,2013-02-23 05:51:00,
2013-02-23 00:56:00,28.1,21.8,30.25,SSW,193,6.9,6.9,77,0.00,CLR,,0.00,0.0,WeatherDisplay:10.37,2013-02-23 05:56:00,
2013-02-23 01:01:00,28.1,21.8,30.25,SSW,200,10.4,10.4,77,0.00,CLR,,0.00,0.0,WeatherDisplay:10.37,2013-02-23 06:01:00,
2013-02-23 01:06:00,28.1,22.1,30.25,SSE,167,9.2,9.2,78,0.00,CLR,,0.00,0.0,WeatherDisplay:10.37,2013-02-23 06:06:00,
2013-02-23 01:11:00,28.1,22.1,30.25,South,172,4.6,4.6,78,0.00,CLR,,0.00,0.0,WeatherDisplay:10.37,2013-02-23 06:11:00,
2013-02-23 01:16:00,28.1,22.1,30.25,SSE,166,3.5,3.5,78,0.00,CLR,,0.00,0.0,WeatherDisplay:10.37,2013-02-23 06:16:00,
2013-02-23 01:21:00,28.1,22.1,30.24,South,174,4.0,4.0,78,0.00,CLR,,0.00,0.0,WeatherDisplay:10.37,2013-02-23 06:21:00,
2013-02-23 01:26:00,28.1,22.1,30.24,South,178,3.0,3.0,78,0.00,CLR,,0.00,0.0,WeatherDisplay:10.37,2013-02-23 06:26:00,
2013-02-23 01:31:00,28.1,22.1,30.24,South,187,2.3,2.3,78,0.00,CLR,,0.00,0.0,WeatherDisplay:10.37,2013-02-23 06:31:00,
2013-02-23 01:36:00,28.1,22.4,30.24,SSW,200,9.2,9.2,79,0.00,CLR,,0.00,0.0,WeatherDisplay:10.37,2013-02-23 06:36:00,
2013-02-23 01:41:00,28.1,22.4,30.24,SSW,200,2.3,2.3,79,0.00,CLR,,0.00,0.0,WeatherDisplay:10.37,2013-02-23 06:41:00,
2013-02-23 01:46:00,28.1,22.4,30.24,SSW,200,3.5,3.5,79,0.00,CLR,,0.00,0.0,WeatherDisplay:10.37,2013-02-23 06:46:00,
2013-02-23 01:51:00,28.1,22.4,30.24,SSW,194,6.0,6.0,79,0.00,CLR,,0.00,0.0,WeatherDisplay:10.37,2013-02-23 06:51:00,
2013-02-23 01:56:00,28.1,22.4,30.24,SSW,202,6.0,6.0,79,0.00,CLR,,0.00,0.0,WeatherDisplay:10.37,2013-02-23 06:56:00,
2013-02-23 02:01:00,28.1,22.4,30.24,SSW,195,5.0,5.0,79,0.00,CLR,,0.00,0.0,WeatherDisplay:10.37,2013-02-23 07:01:00,
2013-02-23 02:06:00,28.0,22.3,30.24,SSW,211,4.6,4.6,79,0.00,CLR,,0.00,0.0,WeatherDisplay:10.37,2013-02-23 07:06:00,
2013-02-23 02:11:00,28.0,22.3,30.24,SSW,210,3.5,3.5,79,0.00,CLR,,0.00,0.0,WeatherDisplay:10.37,2013-02-23 07:11:00,
2013-02-23 02:16:00,28.0,22.3,30.24,SSW,209,1.1,0.0,79,0.00,CLR,,0.00,0.0,WeatherDisplay:10.37,2013-02-23 07:16:00,
2013-02-23 02:21:00,28.0,22.3,30.24,SSW,209,3.5,3.5,79,0.00,CLR,,0.00,0.0,WeatherDisplay:10.37,2013-02-23 07:21:00,
2013-02-23 02:26:00,28.0,22.3,30.24,SSW,209,3.5,3.5,79,0.00,CLR,,0.00,0.0,WeatherDisplay:10.37,2013-02-23 07:26:00,
2013-02-23 02:31:00,27.9,22.2,30.24,SSW,209,0.0,0.0,79,0.00,CLR,,0.00,0.0,WeatherDisplay:10.37,2013-02-23 07:31:00,
2013-02-23 02:36:00,28.0,22.3,30.24,SSW,201,3.5,3.5,79,0.00,CLR,,0.00,0.0,WeatherDisplay:10.37,2013-02-23 07:36:00,
2013-02-23 02:41:00,27.9,22.2,30.24,SSW,200,4.6,4.6,79,0.00,CLR,,0.00,0.0,WeatherDisplay:10.37,2013-02-23 07:41:00,
2013-02-23 02:46:00,27.9,22.2,30.23,SSW,200,0.0,0.0,79,0.00,CLR,,0.00,0.0,WeatherDisplay:10.37,2013-02-23 07:46:00,
2013-02-23 02:51:00,27.9,22.5,30.23,South,186,2.3,2.3,80,0.00,CLR,,0.00,0.0,WeatherDisplay:10.37,2013-02-23 07:51:00,
2013-02-23 02:56:00,27.9,22.5,30.23,South,182,3.5,3.5,80,0.00,CLR,,0.00,0.0,WeatherDisplay:10.37,2013-02-23 07:56:00,
2013-02-23 03:01:00,27.9,22.5,30.22,South,173,3.5,3.5,80,0.00,CLR,,0.00,0.0,WeatherDisplay:10.37,2013-02-23 08:01:00,
2013-02-23 03:06:00,27.8,22.4,30.22,SSE,162,4.6,4.6,80,0.00,CLR,,0.00,0.0,WeatherDisplay:10.37,2013-02-23 08:06:00,
2013-02-23 03:11:00,27.8,22.4,30.22,SSE,151,3.5,3.5,80,0.00,CLR,,0.00,0.0,WeatherDisplay:10.37,2013-02-23 08:11:00,
2013-02-23 03:16:00,27.8,22.4,30.21,SSE,158,3.5,3.5,80,0.00,CLR,,0.00,0.0,WeatherDisplay:10.37,2013-02-23 08:16:00,
2013-02-23 03:21:00,27.8,22.1,30.21,SSE,154,3.5,0.0,79,0.00,CLR,,0.00,0.0,WeatherDisplay:10.37,2013-02-23 08:21:00,
2013-02-23 03:26:00,27.7,22.0,30.21,SSE,162,4.6,4.6,79,0.00,CLR,,0.00,0.0,WeatherDisplay:10.37,2013-02-23 08:26:00,
2013-02-23 03:31:00,27.8,22.1,30.21,SSE,161,3.5,3.5,79,0.00,CLR,,0.00,0.0,WeatherDisplay:10.37,2013-02-23 08:31:00,
2013-02-23 03:36:00,27.8,22.4,30.21,SSE,161,2.0,2.0,80,0.00,CLR,,0.00,0.0,WeatherDisplay:10.37,2013-02-23 08:36:00,
2013-02-23 03:41:00,27.7,22.0,30.21,SSE,161,3.5,3.5,79,0.00,CLR,,0.00,0.0,WeatherDisplay:10.37,2013-02-23 08:41:00,
2013-02-23 03:46:00,27.7,22.0,30.21,SSE,163,3.5,3.5,79,0.00,CLR,,0.00,0.0,WeatherDisplay:10.37,2013-02-23 08:46:00,
2013-02-23 03:51:00,27.7,22.0,30.21,SSE,163,2.3,2.3,79,0.00,CLR,,0.00,0.0,WeatherDisplay:10.37,2013-02-23 08:51:00,
2013-02-23 03:56:00,27.7,22.0,30.21,SSE,163,2.3,2.3,79,0.00,CLR,,0.00,0.0,WeatherDisplay:10.37,2013-02-23 08:56:00,
2013-02-23 04:01:00,27.7,22.3,30.21,SSE,163,1.1,1.1,80,0.00,CLR,,0.00,0.0,WeatherDisplay:10.37,2013-02-23 09:01:00,
2013-02-23 04:06:00,27.7,22.3,30.20,SSE,154,3.0,3.0,80,0.00,CLR,,0.00,0.0,WeatherDisplay:10.37,2013-02-23 09:06:00,
2013-02-23 04:11:00,27.7,22.3,30.20,SSE,161,3.5,3.5,80,0.00,CLR,,0.00,0.0,WeatherDisplay:10.37,2013-02-23 09:11:00,
2013-02-23 04:16:00,27.7,22.3,30.20,SSE,163,3.5,3.5,80,0.00,CLR,,0.00,0.0,WeatherDisplay:10.37,2013-02-23 09:16:00,
2013-02-23 04:21:00,27.7,22.3,30.20,SSE,159,4.6,4.6,80,0.00,CLR,,0.00,0.0,WeatherDisplay:10.37,2013-02-23 09:21:00,
2013-02-23 04:26:00,27.6,22.2,30.20,SSE,153,3.5,3.5,80,0.00,CLR,,0.00,0.0,WeatherDisplay:10.37,2013-02-23 09:26:00,
2013-02-23 04:31:00,27.6,22.2,30.20,SSE,150,5.8,5.8,80,0.00,CLR,,0.00,0.0,WeatherDisplay:10.37,2013-02-23 09:31:00,
2013-02-23 04:36:00,27.6,22.2,30.20,ESE,122,6.9,6.9,80,0.00,CLR,,0.00,0.0,WeatherDisplay:10.37,2013-02-23 09:36:00,
2013-02-23 04:41:00,27.6,22.5,30.20,SSE,154,4.6,4.6,81,0.00,CLR,,0.00,0.0,WeatherDisplay:10.37,2013-02-23 09:41:00,
2013-02-23 04:46:00,27.6,22.5,30.20,South,169,5.8,5.8,81,0.00,CLR,,0.00,0.0,WeatherDisplay:10.37,2013-02-23 09:46:00,
2013-02-23 04:51:00,27.6,22.5,30.20,South,169,2.3,0.0,81,0.00,CLR,,0.00,0.0,WeatherDisplay:10.37,2013-02-23 09:51:00,
2013-02-23 04:56:00,27.6,22.5,30.20,South,169,3.5,3.5,81,0.00,CLR,,0.00,0.0,WeatherDisplay:10.37,2013-02-23 09:56:00,
2013-02-23 05:01:00,27.6,22.5,30.19,SSE,165,5.0,5.0,81,0.00,CLR,,0.00,0.0,WeatherDisplay:10.37,2013-02-23 10:01:00,
2013-02-23 05:06:00,27.6,22.8,30.19,SE,138,2.3,2.3,82,0.00,CLR,,0.00,0.0,WeatherDisplay:10.37,2013-02-23 10:06:00,
2013-02-23 05:11:00,27.6,22.8,30.19,SE,138,3.0,3.0,82,0.00,CLR,,0.00,0.0,WeatherDisplay:10.37,2013-02-23 10:11:00,
2013-02-23 05:16:00,27.6,22.8,30.19,SE,140,3.5,0.0,82,0.00,CLR,,0.00,0.0,WeatherDisplay:10.37,2013-02-23 10:16:00,
2013-02-23 05:21:00,27.6,22.8,30.20,SE,139,3.5,0.0,82,0.00,CLR,,0.00,0.0,WeatherDisplay:10.37,2013-02-23 10:21:00,
2013-02-23 05:26:00,27.6,22.8,30.19,SE,140,4.0,4.0,82,0.00,CLR,,0.00,0.0,WeatherDisplay:10.37,2013-02-23 10:26:00,
2013-02-23 05:31:00,27.6,22.8,30.19,SE,140,0.0,0.0,82,0.00,CLR,,0.00,0.0,WeatherDisplay:10.37,2013-02-23 10:31:00,
2013-02-23 05:36:00,27.6,22.8,30.19,SSE,149,1.1,0.0,82,0.00,CLR,,0.00,0.0,WeatherDisplay:10.37,2013-02-23 10:36:00,
2013-02-23 05:41:00,27.6,22.8,30.19,SSE,153,3.5,3.5,82,0.00,CLR,,0.00,0.0,WeatherDisplay:10.37,2013-02-23 10:41:00,
2013-02-23 05:46:00,27.6,22.8,30.20,SSE,153,2.3,2.3,82,0.00,CLR,,0.00,0.0,WeatherDisplay:10.37,2013-02-23 10:46:00,
2013-02-23 05:51:00,27.6,22.8,30.19,SSE,153,1.1,1.1,82,0.00,CLR,,0.00,0.0,WeatherDisplay:10.37,2013-02-23 10:51:00,
2013-02-23 05:56:00,27.6,22.8,30.19,SSE,151,3.5,3.5,82,0.00,CLR,,0.00,0.0,WeatherDisplay:10.37,2013-02-23 10:56:00,
2013-02-23 06:01:00,27.6,22.8,30.19,South,178,6.9,6.9,82,0.00,CLR,,0.00,0.0,WeatherDisplay:10.37,2013-02-23 11:01:00,
2013-02-23 06:06:00,27.6,22.8,30.18,SE,144,4.6,4.6,82,0.00,CLR,,0.00,0.0,WeatherDisplay:10.37,2013-02-23 11:06:00,
2013-02-23 06:11:00,27.6,22.8,30.18,South,184,3.5,3.5,82,0.00,CLR,,0.00,0.0,WeatherDisplay:10.37,2013-02-23 11:11:00,
2013-02-23 06:16:00,27.6,22.8,30.18,South,181,3.5,3.5,82,0.00,CLR,,0.00,0.0,WeatherDisplay:10.37,2013-02-23 11:16:00,
2013-02-23 06:21:00,27.6,22.8,30.18,South,178,2.0,2.0,82,0.00,CLR,,0.00,0.0,WeatherDisplay:10.37,2013-02-23 11:21:00,
2013-02-23 06:26:00,27.6,22.8,30.18,South,170,4.6,4.6,82,0.00,CLR,,0.00,0.0,WeatherDisplay:10.37,2013-02-23 11:26:00,
2013-02-23 06:31:00,27.6,23.1,30.18,SSE,161,3.5,3.5,83,0.00,CLR,,0.00,0.0,WeatherDisplay:10.37,2013-02-23 11:31:00,
2013-02-23 06:36:00,27.6,23.1,30.18,SSE,158,3.5,3.5,83,0.00,CLR,,0.00,0.0,WeatherDisplay:10.37,2013-02-23 11:36:00,
2013-02-23 06:41:00,27.6,23.1,30.17,SSE,149,4.6,4.6,83,0.00,CLR,,0.00,0.0,WeatherDisplay:10.37,2013-02-23 11:41:00,
2013-02-23 06:46:00,27.6,23.1,30.17,SSE,159,3.5,3.5,83,0.00,CLR,,0.00,0.0,WeatherDisplay:10.37,2013-02-23 11:46:00,
2013-02-23 06:51:00,27.6,23.1,30.17,SSE,159,3.5,3.5,83,0.00,CLR,,0.00,0.0,WeatherDisplay:10.37,2013-02-23 11:51:00,
2013-02-23 06:56:00,27.6,23.1,30.17,SSE,161,5.8,5.8,83,0.00,CLR,,0.00,7.0,WeatherDisplay:10.37,2013-02-23 11:56:00,
2013-02-23 07:01:00,27.6,23.1,30.17,SE,141,5.8,5.8,83,0.00,CLR,,0.00,11.0,WeatherDisplay:10.37,2013-02-23 12:01:00,
2013-02-23 07:06:00,27.7,23.2,30.17,SE,142,3.5,3.5,83,0.00,CLR,,0.00,14.0,WeatherDisplay:10.37,2013-02-23 12:06:00,
2013-02-23 07:11:00,27.7,23.2,30.17,SSE,167,3.5,3.5,83,0.00,CLR,,0.00,12.0,WeatherDisplay:10.37,2013-02-23 12:11:00,
2013-02-23 07:16:00,27.8,23.3,30.17,SSE,167,6.0,6.0,83,0.00,CLR,,0.00,18.0,WeatherDisplay:10.37,2013-02-23 12:16:00,
2013-02-23 07:21:00,27.8,23.3,30.17,SSE,153,4.6,4.6,83,0.00,CLR,,0.00,28.0,WeatherDisplay:10.37,2013-02-23 12:21:00,
2013-02-23 07:26:00,27.9,23.4,30.17,SSE,168,5.8,5.8,83,0.00,CLR,,0.00,26.0,WeatherDisplay:10.37,2013-02-23 12:26:00,
2013-02-23 07:31:00,27.9,23.4,30.17,SSE,167,5.8,5.8,83,0.00,CLR,,0.00,26.0,WeatherDisplay:10.37,2013-02-23 12:31:00,
2013-02-23 07:36:00,28.0,23.5,30.18,South,190,3.5,3.5,83,0.00,CLR,,0.00,33.0,WeatherDisplay:10.37,2013-02-23 12:36:00,
2013-02-23 07:41:00,28.1,23.6,30.17,SSE,168,5.0,5.0,83,0.00,CLR,,0.00,37.0,WeatherDisplay:10.37,2013-02-23 12:41:00,
2013-02-23 07:46:00,28.1,23.6,30.17,SSE,154,5.8,5.8,83,0.00,CLR,,0.00,42.0,WeatherDisplay:10.37,2013-02-23 12:46:00,
2013-02-23 07:51:00,28.2,23.7,30.17,SSE,168,4.6,4.6,83,0.00,CLR,,0.00,39.0,WeatherDisplay:10.37,2013-02-23 12:51:00,
2013-02-23 07:56:00,28.3,23.8,30.17,SSE,163,6.9,6.9,83,0.00,CLR,,0.00,39.0,WeatherDisplay:10.37,2013-02-23 12:56:00,
2013-02-23 08:01:00,28.3,23.8,30.17,ESE,122,6.9,6.9,83,0.00,OVC,,0.00,42.0,WeatherDisplay:10.37,2013-02-23 13:01:00,
2013-02-23 08:06:00,28.4,23.9,30.17,SE,142,5.8,5.8,83,0.00,OVC,,0.00,44.0,WeatherDisplay:10.37,2013-02-23 13:06:00,
2013-02-23 08:11:00,28.5,24.0,30.16,South,171,3.5,3.5,83,0.00,OVC,,0.00,69.0,WeatherDisplay:10.37,2013-02-23 13:11:00,
2013-02-23 08:16:00,28.6,24.1,30.16,SSE,152,3.5,3.5,83,0.00,OVC,,0.00,67.0,WeatherDisplay:10.37,2013-02-23 13:16:00,
2013-02-23 08:21:00,28.8,24.3,30.16,SW,217,9.2,9.2,83,0.00,OVC,,0.00,63.0,WeatherDisplay:10.37,2013-02-23 13:21:00,
2013-02-23 08:26:00,28.9,24.4,30.16,SSE,150,6.9,6.9,83,0.00,OVC,,0.00,53.0,WeatherDisplay:10.37,2013-02-23 13:26:00,
2013-02-23 08:31:00,29.0,24.5,30.16,SE,139,5.8,5.8,83,0.00,OVC,,0.00,53.0,WeatherDisplay:10.37,2013-02-23 13:31:00,
2013-02-23 08:36:00,29.1,24.6,30.16,SSE,153,9.0,9.0,83,0.00,OVC,,0.00,51.0,WeatherDisplay:10.37,2013-02-23 13:36:00,
2013-02-23 08:41:00,29.1,24.6,30.15,SSE,165,5.8,5.8,83,0.00,OVC,,0.00,67.0,WeatherDisplay:10.37,2013-02-23 13:41:00,
2013-02-23 08:46:00,29.2,24.7,30.16,SE,145,7.0,7.0,83,0.00,OVC,,0.00,58.0,WeatherDisplay:10.37,2013-02-23 13:46:00,
2013-02-23 08:51:00,29.3,24.8,30.15,SSE,158,3.5,3.5,83,0.00,OVC,,0.00,54.0,WeatherDisplay:10.37,2013-02-23 13:51:00,
2013-02-23 08:56:00,29.4,24.6,30.15,SSE,155,10.0,10.0,82,0.00,OVC,,0.00,58.0,WeatherDisplay:10.37,2013-02-23 13:56:00,
2013-02-23 09:01:00,29.4,24.6,30.16,SSE,148,3.5,3.5,82,0.00,OVC,,0.00,60.0,WeatherDisplay:10.37,2013-02-23 14:01:00,
2013-02-23 09:06:00,29.5,25.0,30.15,South,183,3.5,3.5,83,0.00,OVC,,0.00,58.0,WeatherDisplay:10.37,2013-02-23 14:06:00,
2013-02-23 09:11:00,29.6,25.1,30.15,SSW,196,5.0,5.0,83,0.00,OVC,,0.00,67.0,WeatherDisplay:10.37,2013-02-23 14:11:00,
2013-02-23 09:16:00,29.7,25.2,30.15,South,170,5.8,5.8,83,0.00,OVC,,0.00,69.0,WeatherDisplay:10.37,2013-02-23 14:16:00,
2013-02-23 09:21:00,29.8,25.3,30.15,South,175,10.4,10.4,83,0.00,OVC,,0.00,86.0,WeatherDisplay:10.37,2013-02-23 14:21:00,
2013-02-23 09:26:00,29.9,25.4,30.15,South,187,12.7,12.7,83,0.00,OVC,,0.00,76.0,WeatherDisplay:10.37,2013-02-23 14:26:00,
2013-02-23 09:31:00,30.0,25.5,30.14,SE,142,6.9,6.9,83,0.00,OVC,,0.00,77.0,WeatherDisplay:10.37,2013-02-23 14:31:00,
2013-02-23 09:36:00,30.1,25.3,30.14,SSE,165,11.5,11.5,82,0.00,OVC,,0.00,81.0,WeatherDisplay:10.37,2013-02-23 14:36:00,
2013-02-23 09:41:00,30.1,25.3,30.13,South,173,3.0,3.0,82,0.00,OVC,,0.00,79.0,WeatherDisplay:10.37,2013-02-23 14:41:00,
2013-02-23 09:46:00,30.2,25.4,30.13,SE,144,9.2,9.2,82,0.00,OVC,,0.00,77.0,WeatherDisplay:10.37,2013-02-23 14:46:00,
2013-02-23 09:51:00,30.2,25.4,30.13,SSE,151,6.9,6.9,82,0.00,OVC,,0.00,100.0,WeatherDisplay:10.37,2013-02-23 14:51:00,
2013-02-23 09:56:00,30.3,25.8,30.13,SSE,148,5.0,5.0,83,0.00,OVC,,0.00,84.0,WeatherDisplay:10.37,2013-02-23 14:56:00,
2013-02-23 10:01:00,30.4,25.9,30.13,SSE,164,8.1,8.1,83,0.00,OVC,,0.00,97.0,WeatherDisplay:10.37,2013-02-23 15:01:00,
2013-02-23 10:06:00,30.6,26.1,30.13,SE,145,5.8,5.8,83,0.00,OVC,,0.00,104.0,WeatherDisplay:10.37,2013-02-23 15:06:00,
2013-02-23 10:11:00,30.7,25.9,30.12,South,188,8.1,8.1,82,0.00,OVC,,0.00,91.0,WeatherDisplay:10.37,2013-02-23 15:11:00,
2013-02-23 10:16:00,30.8,26.0,30.12,SE,129,6.9,6.9,82,0.00,OVC,,0.00,102.0,WeatherDisplay:10.37,2013-02-23 15:16:00,
2013-02-23 10:21:00,31.0,26.1,30.12,ESE,114,11.5,11.5,82,0.00,OVC,,0.00,98.0,WeatherDisplay:10.37,2013-02-23 15:21:00,
2013-02-23 10:26:00,31.1,26.5,30.12,SSE,168,3.5,3.5,83,0.00,OVC,,0.00,104.0,WeatherDisplay:10.37,2013-02-23 15:26:00,
2013-02-23 10:31:00,31.2,26.3,30.11,SSW,203,4.6,4.6,82,0.00,OVC,,0.00,95.0,WeatherDisplay:10.37,2013-02-23 15:31:00,
2013-02-23 10:36:00,31.3,26.4,30.11,South,182,9.2,9.2,82,0.00,OVC,,0.00,81.0,WeatherDisplay:10.37,2013-02-23 15:36:00,
2013-02-23 10:41:00,31.3,26.4,30.11,South,173,2.3,0.0,82,0.00,OVC,,0.00,74.0,WeatherDisplay:10.37,2013-02-23 15:41:00,
2013-02-23 10:46:00,31.4,26.5,30.11,SW,218,4.6,4.6,82,0.00,OVC,,0.00,93.0,WeatherDisplay:10.37,2013-02-23 15:46:00,
2013-02-23 10:51:00,31.4,26.5,30.11,SSE,159,6.9,6.9,82,0.00,OVC,,0.00,81.0,WeatherDisplay:10.37,2013-02-23 15:51:00,
2013-02-23 10:56:00,31.4,26.5,30.11,SSE,165,6.9,6.9,82,0.00,OVC,,0.00,69.0,WeatherDisplay:10.37,2013-02-23 15:56:00,
2013-02-23 11:01:00,31.4,26.5,30.11,SSE,166,5.8,5.8,82,0.00,OVC,,0.00,79.0,WeatherDisplay:10.37,2013-02-23 16:01:00,
2013-02-23 11:06:00,31.4,26.5,30.11,South,184,5.8,5.8,82,0.00,OVC,,0.00,76.0,WeatherDisplay:10.37,2013-02-23 16:06:00,
2013-02-23 11:11:00,31.4,26.8,30.11,SW,218,6.9,6.9,83,0.00,OVC,,0.00,72.0,WeatherDisplay:10.37,2013-02-23 16:11:00,
2013-02-23 11:16:00,31.4,26.8,30.11,SE,146,10.4,10.4,83,0.00,OVC,,0.00,65.0,WeatherDisplay:10.37,2013-02-23 16:16:00,
2013-02-23 11:21:00,31.4,26.8,30.11,South,172,4.6,4.6,83,0.00,OVC,,0.00,72.0,WeatherDisplay:10.37,2013-02-23 16:21:00,
2013-02-23 11:26:00,31.4,27.1,30.11,SE,126,6.9,6.9,84,0.00,OVC,,0.00,76.0,WeatherDisplay:10.37,2013-02-23 16:26:00,
2013-02-23 11:31:00,31.3,27.0,30.10,SE,127,10.0,10.0,84,0.00,OVC,,0.00,97.0,WeatherDisplay:10.37,2013-02-23 16:31:00,
2013-02-23 11:36:00,31.3,27.3,30.09,SSE,147,5.8,5.8,85,0.00,OVC,,0.00,97.0,WeatherDisplay:10.37,2013-02-23 16:36:00,
2013-02-23 11:41:00,31.4,27.4,30.09,SE,127,4.6,4.6,85,0.00,CLR,,0.00,77.0,WeatherDisplay:10.37,2013-02-23 16:41:00,
2013-02-23 11:46:00,31.5,27.5,30.09,SE,146,3.5,3.5,85,0.00,CLR,,0.00,84.0,WeatherDisplay:10.37,2013-02-23 16:46:00,
2013-02-23 11:51:00,31.5,27.8,30.09,South,175,3.5,3.5,86,0.00,CLR,,0.00,69.0,WeatherDisplay:10.37,2013-02-23 16:51:00,
2013-02-23 11:56:00,31.5,27.8,30.08,SE,126,4.6,4.6,86,0.00,CLR,,0.00,100.0,WeatherDisplay:10.37,2013-02-23 16:56:00,
2013-02-23 12:01:00,31.5,27.8,30.08,South,187,6.9,6.9,86,0.00,CLR,,0.00,79.0,WeatherDisplay:10.37,2013-02-23 17:01:00,
2013-02-23 12:06:00,31.5,28.1,30.08,SSE,165,5.8,5.8,87,0.00,CLR,,0.00,69.0,WeatherDisplay:10.37,2013-02-23 17:06:00,
2013-02-23 12:11:00,31.6,28.2,30.08,SE,136,3.0,3.0,87,0.00,FEW,,0.00,63.0,WeatherDisplay:10.37,2013-02-23 17:11:00,
2013-02-23 12:16:00,31.5,28.1,30.07,South,169,5.8,5.8,87,0.00,FEW,,0.00,70.0,WeatherDisplay:10.37,2013-02-23 17:16:00,
2013-02-23 12:21:00,31.5,28.4,30.07,East,83,6.0,6.0,88,0.00,SCT,,0.00,69.0,WeatherDisplay:10.37,2013-02-23 17:21:00,
2013-02-23 12:26:00,31.4,28.3,30.07,SE,128,5.8,5.8,88,0.00,FEW,,0.00,69.0,WeatherDisplay:10.37,2013-02-23 17:26:00,
2013-02-23 12:31:00,31.3,28.2,30.07,SSE,163,3.5,3.5,88,0.00,BKN,,0.00,49.0,WeatherDisplay:10.37,2013-02-23 17:31:00,
2013-02-23 12:36:00,31.2,28.1,30.06,SE,136,4.6,4.6,88,0.00,SCT,,0.00,63.0,WeatherDisplay:10.37,2013-02-23 17:36:00,
2013-02-23 12:41:00,31.1,28.2,30.06,ESE,115,5.8,5.8,89,0.00,BKN,,0.00,56.0,WeatherDisplay:10.37,2013-02-23 17:41:00,
2013-02-23 12:46:00,31.0,28.1,30.07,East,93,9.2,9.2,89,0.00,BKN,,0.00,51.0,WeatherDisplay:10.37,2013-02-23 17:46:00,
2013-02-23 12:51:00,31.0,28.1,30.06,ESE,117,5.8,5.8,89,0.00,BKN,,0.00,56.0,WeatherDisplay:10.37,2013-02-23 17:51:00,
2013-02-23 12:56:00,30.9,28.3,30.06,ESE,120,3.5,3.5,90,0.00,BKN,,0.00,63.0,WeatherDisplay:10.37,2013-02-23 17:56:00,
2013-02-23 13:01:00,30.9,28.3,30.06,SE,138,5.8,5.8,90,0.00,BKN,,0.00,63.0,WeatherDisplay:10.37,2013-02-23 18:01:00,
2013-02-23 13:06:00,30.9,28.3,30.06,ESE,109,3.5,3.5,90,0.00,BKN,,0.00,56.0,WeatherDisplay:10.37,2013-02-23 18:06:00,
2013-02-23 13:11:00,31.0,28.4,30.06,SSE,163,3.5,3.5,90,0.00,BKN,,0.00,54.0,WeatherDisplay:10.37,2013-02-23 18:11:00,
2013-02-23 13:16:00,31.0,28.4,30.06,SE,145,5.0,5.0,90,0.00,BKN,,0.00,51.0,WeatherDisplay:10.37,2013-02-23 18:16:00,
2013-02-23 13:21:00,31.0,28.4,30.06,SSE,153,3.0,3.0,90,0.00,BKN,,0.00,30.0,WeatherDisplay:10.37,2013-02-23 18:21:00,
2013-02-23 13:26:00,31.0,28.4,30.06,SSE,155,2.0,2.0,90,0.00,BKN,,0.00,40.0,WeatherDisplay:10.37,2013-02-23 18:26:00,
2013-02-23 13:31:00,31.0,28.7,30.06,ESE,107,3.5,3.5,91,0.00,BKN,,0.00,33.0,WeatherDisplay:10.37,2013-02-23 18:31:00,
2013-02-23 13:36:00,31.0,28.7,30.06,SE,137,3.5,3.5,91,0.00,BKN,,0.00,28.0,WeatherDisplay:10.37,2013-02-23 18:36:00,
2013-02-23 13:41:00,30.9,28.6,30.07,SE,139,2.3,2.3,91,0.00,BKN,,0.00,33.0,WeatherDisplay:10.37,2013-02-23 18:41:00,
2013-02-23 13:46:00,30.9,28.6,30.07,SSE,152,2.3,2.3,91,0.00,OVC,,0.00,23.0,WeatherDisplay:10.37,2013-02-23 18:46:00,
2013-02-23 13:51:00,30.9,28.6,30.07,SSW,208,2.0,2.0,91,0.00,BKN,,0.00,25.0,WeatherDisplay:10.37,2013-02-23 18:51:00,
2013-02-23 13:56:00,30.9,28.6,30.07,SSW,210,0.0,0.0,91,0.00,OVC,,0.00,23.0,WeatherDisplay:10.37,2013-02-23 18:56:00,
2013-02-23 14:01:00,30.8,28.8,30.07,SSE,159,4.6,4.6,92,0.00,BKN,,0.00,33.0,WeatherDisplay:10.37,2013-02-23 19:01:00,
2013-02-23 14:06:00,30.8,28.8,30.06,South,175,3.5,0.0,92,0.00,BKN,,0.00,33.0,WeatherDisplay:10.37,2013-02-23 19:06:00,
2013-02-23 14:11:00,30.8,28.8,30.07,SSE,158,4.0,4.0,92,0.00,BKN,,0.00,32.0,WeatherDisplay:10.37,2013-02-23 19:11:00,
2013-02-23 14:16:00,30.9,28.9,30.06,SE,146,3.5,3.5,92,0.00,BKN,,0.00,35.0,WeatherDisplay:10.37,2013-02-23 19:16:00,
2013-02-23 14:21:00,30.9,28.9,30.06,SE,136,4.0,4.0,92,0.00,BKN,,0.00,32.0,WeatherDisplay:10.37,2013-02-23 19:21:00,
2013-02-23 14:26:00,30.8,28.8,30.06,SSE,156,3.5,3.5,92,0.00,BKN,,0.00,42.0,WeatherDisplay:10.37,2013-02-23 19:26:00,
2013-02-23 14:31:00,30.8,28.8,30.05,East,97,6.0,6.0,92,0.00,BKN,,0.00,54.0,WeatherDisplay:10.37,2013-02-23 19:31:00,
2013-02-23 14:36:00,30.8,29.0,30.05,SE,140,5.8,5.8,93,0.00,BKN,,0.00,46.0,WeatherDisplay:10.37,2013-02-23 19:36:00,
2013-02-23 14:41:00,30.9,29.1,30.04,SSE,162,3.5,3.5,93,0.00,BKN,,0.00,53.0,WeatherDisplay:10.37,2013-02-23 19:41:00,
2013-02-23 14:57:00,31.0,29.2,30.04,SSE,151,9.0,9.0,93,0.00,BKN,,0.00,58.0,WeatherDisplay:10.37,2013-02-23 19:57:00,
2013-02-23 15:02:00,31.1,29.3,30.04,SE,145,6.9,6.9,93,0.00,BKN,,0.00,53.0,WeatherDisplay:10.37,2013-02-23 20:02:00,
2013-02-23 15:07:00,31.1,29.3,30.03,SSE,158,3.5,3.5,93,0.00,BKN,,0.00,62.0,WeatherDisplay:10.37,2013-02-23 20:07:00,
2013-02-23 15:12:00,31.1,29.3,30.03,SE,134,7.0,7.0,93,0.00,BKN,,0.00,56.0,WeatherDisplay:10.37,2013-02-23 20:12:00,
2013-02-23 15:17:00,31.1,29.3,30.03,SSE,147,9.2,9.2,93,0.00,BKN,,0.00,67.0,WeatherDisplay:10.37,2013-02-23 20:17:00,
2013-02-23 15:23:00,31.1,29.3,30.03,South,188,5.8,5.8,93,0.00,BKN,,0.00,70.0,WeatherDisplay:10.37,2013-02-23 20:23:00,
2013-02-23 15:28:00,31.1,29.3,30.02,SE,134,3.5,3.5,93,0.00,BKN,,0.00,49.0,WeatherDisplay:10.37,2013-02-23 20:28:00,
2013-02-23 15:33:00,31.1,29.3,30.02,SSE,149,1.1,0.0,93,0.00,BKN,,0.00,56.0,WeatherDisplay:10.37,2013-02-23 20:33:00,
2013-02-23 15:38:00,31.1,29.3,30.02,ESE,115,2.3,0.0,93,0.00,BKN,,0.00,56.0,WeatherDisplay:10.37,2013-02-23 20:38:00,
2013-02-23 15:43:00,31.1,29.3,30.02,SW,229,4.6,4.6,93,0.00,OVC,,0.00,40.0,WeatherDisplay:10.37,2013-02-23 20:43:00,
2013-02-23 15:48:00,31.1,29.3,30.02,SSW,192,4.6,4.6,93,0.00,OVC,,0.00,28.0,WeatherDisplay:10.37,2013-02-23 20:48:00,
2013-02-23 15:53:00,31.1,29.3,30.02,SSE,157,9.2,9.2,93,0.00,OVC,,0.00,28.0,WeatherDisplay:10.37,2013-02-23 20:53:00,
2013-02-23 15:58:00,31.1,29.3,30.01,SSE,167,4.6,4.6,93,0.00,OVC,,0.00,39.0,WeatherDisplay:10.37,2013-02-23 20:58:00,
2013-02-23 16:03:00,31.0,29.2,30.02,SSW,212,6.9,6.9,93,0.00,CLR,,0.00,33.0,WeatherDisplay:10.37,2013-02-23 21:03:00,
2013-02-23 16:08:00,31.0,29.2,30.02,SE,130,5.8,5.8,93,0.00,CLR,,0.00,12.0,WeatherDisplay:10.37,2013-02-23 21:08:00,
2013-02-23 16:13:00,30.9,29.1,30.02,ESE,117,10.4,10.4,93,0.00,CLR,,0.00,12.0,WeatherDisplay:10.37,2013-02-23 21:13:00,
2013-02-23 16:18:00,30.9,29.1,30.02,SE,131,6.0,6.0,93,0.00,CLR,,0.00,16.0,WeatherDisplay:10.37,2013-02-23 21:18:00,
2013-02-23 16:23:00,30.8,29.3,30.02,SSE,161,3.5,3.5,94,0.00,CLR,,0.00,16.0,WeatherDisplay:10.37,2013-02-23 21:23:00,
2013-02-23 16:28:00,30.8,29.3,30.02,SE,140,3.5,3.5,94,0.00,CLR,,0.00,11.0,WeatherDisplay:10.37,2013-02-23 21:28:00,
2013-02-23 16:33:00,30.8,29.3,30.02,South,171,4.0,4.0,94,0.00,CLR,,0.00,9.0,WeatherDisplay:10.37,2013-02-23 21:33:00,
2013-02-23 16:38:00,30.8,29.3,30.02,SE,136,5.0,5.0,94,0.00,CLR,,0.00,16.0,WeatherDisplay:10.37,2013-02-23 21:38:00,
2013-02-23 16:43:00,30.7,29.2,30.02,SSE,163,5.8,5.8,94,0.00,CLR,,0.00,11.0,WeatherDisplay:10.37,2013-02-23 21:43:00,
2013-02-23 16:48:00,30.7,29.2,30.01,SSE,153,3.5,3.5,94,0.00,CLR,,0.00,9.0,WeatherDisplay:10.37,2013-02-23 21:48:00,
2013-02-23 16:53:00,30.7,29.2,30.01,SSE,150,2.3,2.3,94,0.00,CLR,,0.00,9.0,WeatherDisplay:10.37,2013-02-23 21:53:00,
2013-02-23 16:58:00,30.7,29.2,30.01,SE,144,5.0,5.0,94,0.00,CLR,,0.00,7.0,WeatherDisplay:10.37,2013-02-23 21:58:00,
2013-02-23 17:03:00,30.7,29.2,30.01,South,180,1.1,1.1,94,0.00,CLR,,0.00,7.0,WeatherDisplay:10.37,2013-02-23 22:03:00,
2013-02-23 17:08:00,30.6,29.1,30.01,SE,132,3.5,3.5,94,0.00,CLR,,0.00,7.0,WeatherDisplay:10.37,2013-02-23 22:08:00,
2013-02-23 17:13:00,30.6,29.1,30.01,SE,133,2.3,2.3,94,0.00,CLR,,0.00,0.0,WeatherDisplay:10.37,2013-02-23 22:13:00,
2013-02-23 17:18:00,30.6,29.1,30.00,SSE,165,3.5,3.5,94,0.00,CLR,,0.00,0.0,WeatherDisplay:10.37,2013-02-23 22:18:00,
2013-02-23 17:23:00,30.5,29.0,30.00,SE,142,4.0,4.0,94,0.00,CLR,,0.00,0.0,WeatherDisplay:10.37,2013-02-23 22:23:00,
2013-02-23 17:28:00,30.5,29.0,30.00,SSE,150,3.5,3.5,94,0.00,CLR,,0.00,0.0,WeatherDisplay:10.37,2013-02-23 22:28:00,
2013-02-23 17:33:00,30.5,29.0,29.99,SE,128,2.3,2.3,94,0.00,CLR,,0.00,0.0,WeatherDisplay:10.37,2013-02-23 22:33:00,
2013-02-23 17:38:00,30.5,29.0,29.99,ESE,118,3.5,3.5,94,0.00,CLR,,0.00,0.0,WeatherDisplay:10.37,2013-02-23 22:38:00,
2013-02-23 17:43:00,30.4,28.9,29.99,SE,142,2.0,2.0,94,0.00,CLR,,0.00,0.0,WeatherDisplay:10.37,2013-02-23 22:43:00,
2013-02-23 17:48:00,30.4,28.9,29.99,SE,134,3.5,3.5,94,0.00,CLR,,0.00,0.0,WeatherDisplay:10.37,2013-02-23 22:48:00,
2013-02-23 17:53:00,30.4,28.9,30.00,SE,142,0.0,0.1,94,0.00,CLR,,0.00,0.0,WeatherDisplay:10.37,2013-02-23 22:53:00,
2013-02-23 17:58:00,30.4,28.9,30.00,ESE,117,1.1,1.1,94,0.00,CLR,,0.00,0.0,WeatherDisplay:10.37,2013-02-23 22:58:00,
2013-02-23 18:03:00,30.3,28.8,29.99,SE,132,10.4,10.4,94,0.00,CLR,,0.00,0.0,WeatherDisplay:10.37,2013-02-23 23:03:00,
2013-02-23 18:08:00,30.3,28.8,29.99,SE,136,3.0,3.0,94,0.00,CLR,,0.00,0.0,WeatherDisplay:10.37,2013-02-23 23:08:00,
2013-02-23 18:13:00,30.3,28.8,29.99,ESE,119,2.0,2.0,94,0.00,CLR,,0.00,0.0,WeatherDisplay:10.37,2013-02-23 23:13:00,
2013-02-23 18:18:00,30.2,28.7,29.99,ESE,111,3.5,3.5,94,0.00,CLR,,0.00,0.0,WeatherDisplay:10.37,2013-02-23 23:18:00,
2013-02-23 18:23:00,30.2,28.9,29.99,ESE,111,2.3,0.0,95,0.00,CLR,,0.00,0.0,WeatherDisplay:10.37,2013-02-23 23:23:00,
2013-02-23 18:28:00,30.2,28.9,29.99,SSE,148,2.3,2.3,95,0.00,CLR,,0.00,0.0,WeatherDisplay:10.37,2013-02-23 23:28:00,
2013-02-23 18:33:00,30.2,28.9,29.99,SE,128,3.5,3.5,95,0.00,CLR,,0.00,0.0,WeatherDisplay:10.37,2013-02-23 23:33:00,
2013-02-23 18:38:00,30.2,28.9,29.99,SE,128,2.3,2.3,95,0.00,CLR,,0.00,0.0,WeatherDisplay:10.37,2013-02-23 23:38:00,
2013-02-23 18:43:00,30.2,28.9,29.98,ESE,117,2.3,2.3,95,0.00,CLR,,0.00,0.0,WeatherDisplay:10.37,2013-02-23 23:43:00,
2013-02-23 18:48:00,30.1,28.6,29.98,SE,142,2.3,0.0,94,0.00,CLR,,0.00,0.0,WeatherDisplay:10.37,2013-02-23 23:48:00,
2013-02-23 18:53:00,30.1,28.6,29.98,ESE,111,2.0,2.0,94,0.00,CLR,,0.00,0.0,WeatherDisplay:10.37,2013-02-23 23:53:00,
2013-02-23 18:58:00,30.1,28.8,29.98,SSE,158,2.3,2.3,95,0.00,CLR,,0.00,0.0,WeatherDisplay:10.37,2013-02-23 23:58:00,
2013-02-23 19:03:00,30.1,28.8,29.99,SSE,157,0.0,0.0,95,0.00,CLR,,0.00,0.0,WeatherDisplay:10.37,2013-02-24 00:03:00,
2013-02-23 19:08:00,30.1,28.8,29.98,ESE,121,0.0,0.0,95,0.00,CLR,,0.00,0.0,WeatherDisplay:10.37,2013-02-24 00:08:00,
2013-02-23 19:13:00,30.1,28.8,29.99,SSE,148,3.0,3.0,95,0.00,CLR,,0.00,0.0,WeatherDisplay:10.37,2013-02-24 00:13:00,
2013-02-23 19:18:00,30.0,28.7,29.98,SE,125,5.0,5.0,95,0.00,CLR,,0.00,0.0,WeatherDisplay:10.37,2013-02-24 00:18:00,
2013-02-23 19:23:00,30.0,28.7,29.98,ESE,113,1.0,1.0,95,0.00,CLR,,0.00,0.0,WeatherDisplay:10.37,2013-02-24 00:23:00,
2013-02-23 19:28:00,30.0,28.7,29.97,SE,128,4.0,4.0,95,0.00,CLR,,0.00,0.0,WeatherDisplay:10.37,2013-02-24 00:28:00,
2013-02-23 19:33:00,30.0,28.7,29.97,SE,145,4.6,4.6,95,0.00,CLR,,0.00,0.0,WeatherDisplay:10.37,2013-02-24 00:33:00,
2013-02-23 19:38:00,30.0,28.7,29.96,SSE,147,0.0,1.1,95,0.00,CLR,,0.00,0.0,WeatherDisplay:10.37,2013-02-24 00:38:00,
2013-02-23 19:43:00,30.0,28.7,29.96,South,180,6.9,6.9,95,0.00,CLR,,0.00,0.0,WeatherDisplay:10.37,2013-02-24 00:43:00,
2013-02-23 19:48:00,30.0,28.7,29.96,SSE,159,4.6,4.6,95,0.00,CLR,,0.00,0.0,WeatherDisplay:10.37,2013-02-24 00:48:00,
2013-02-23 19:53:00,30.0,28.7,29.97,ESE,120,3.5,3.5,95,0.00,CLR,,0.00,0.0,WeatherDisplay:10.37,2013-02-24 00:53:00,
2013-02-23 19:58:00,30.0,28.7,29.97,ESE,109,3.5,3.5,95,0.00,CLR,,0.00,0.0,WeatherDisplay:10.37,2013-02-24 00:58:00,
2013-02-23 20:03:00,30.0,28.7,29.96,South,171,0.0,0.0,95,0.00,CLR,,0.00,0.0,WeatherDisplay:10.37,2013-02-24 01:03:00,
2013-02-23 20:08:00,30.0,28.7,29.96,ESE,111,4.6,4.6,95,0.00,CLR,,0.00,0.0,WeatherDisplay:10.37,2013-02-24 01:08:00,
2013-02-23 20:13:00,30.0,28.7,29.96,ESE,119,0.0,5.0,95,0.00,CLR,CLR,0.00,0.0,WeatherDisplay:10.37,2013-02-24 01:13:00,
2013-02-23 20:18:00,30.0,28.7,29.95,ESE,107,5.8,5.8,95,0.00,CLR,,0.00,0.0,WeatherDisplay:10.37,2013-02-24 01:18:00,
2013-02-23 20:23:00,30.0,28.7,29.95,SE,126,5.8,5.8,95,0.00,CLR,,0.00,0.0,WeatherDisplay:10.37,2013-02-24 01:23:00,
2013-02-23 20:28:00,30.0,28.7,29.95,East,93,2.3,2.3,95,0.00,CLR,,0.00,0.0,WeatherDisplay:10.37,2013-02-24 01:28:00,
2013-02-23 20:33:00,30.0,28.7,29.95,ESE,103,1.0,4.0,95,0.00,CLR,CLR,0.00,0.0,WeatherDisplay:10.37,2013-02-24 01:33:00,
2013-02-23 20:38:00,30.0,28.7,29.94,SE,132,3.5,0.0,95,0.00,CLR,,0.00,0.0,WeatherDisplay:10.37,2013-02-24 01:38:00,
2013-02-23 20:43:00,30.0,28.7,29.94,ESE,107,4.6,4.6,95,0.00,CLR,,0.00,0.0,WeatherDisplay:10.37,2013-02-24 01:43:00,
2013-02-23 20:48:00,30.0,28.7,29.95,SSE,167,5.8,5.8,95,0.00,CLR,,0.00,0.0,WeatherDisplay:10.37,2013-02-24 01:48:00,
2013-02-23 20:53:00,30.0,28.7,29.96,SW,223,2.3,0.0,95,0.00,CLR,,0.00,0.0,WeatherDisplay:10.37,2013-02-24 01:53:00,
2013-02-23 20:58:00,30.0,28.7,29.95,SSE,163,2.3,2.3,95,0.00,CLR,,0.00,0.0,WeatherDisplay:10.37,2013-02-24 01:58:00,
2013-02-23 21:03:00,30.0,28.7,29.95,SE,137,0.0,0.0,95,0.00,CLR,,0.00,0.0,WeatherDisplay:10.37,2013-02-24 02:03:00,
2013-02-23 21:08:00,30.0,28.7,29.95,ESE,115,3.5,3.5,95,0.00,CLR,,0.00,0.0,WeatherDisplay:10.37,2013-02-24 02:08:00,
2013-02-23 21:13:00,30.0,28.7,29.94,ESE,113,0.0,0.0,95,0.00,CLR,,0.00,0.0,WeatherDisplay:10.37,2013-02-24 02:13:00,
2013-02-23 21:18:00,30.0,28.7,29.94,ESE,107,3.5,3.5,95,0.00,CLR,,0.00,0.0,WeatherDisplay:10.37,2013-02-24 02:18:00,
2013-02-23 21:23:00,30.0,28.7,29.95,ESE,105,3.5,3.5,95,0.00,CLR,,0.00,0.0,WeatherDisplay:10.37,2013-02-24 02:23:00,
2013-02-23 21:28:00,30.0,28.7,29.95,ESE,114,0.0,0.0,95,0.00,CLR,,0.00,0.0,WeatherDisplay:10.37,2013-02-24 02:28:00,
2013-02-23 21:33:00,30.0,28.7,29.94,ESE,121,3.5,3.5,95,0.00,CLR,,0.00,0.0,WeatherDisplay:10.37,2013-02-24 02:33:00,
2013-02-23 21:38:00,30.1,28.8,29.94,ESE,107,3.5,3.5,95,0.00,CLR,,0.00,0.0,WeatherDisplay:10.37,2013-02-24 02:38:00,
2013-02-23 21:43:00,30.1,28.8,29.94,East,99,3.5,3.5,95,0.00,CLR,,0.00,0.0,WeatherDisplay:10.37,2013-02-24 02:43:00,
2013-02-23 21:48:00,30.2,28.9,29.93,ESE,114,3.5,0.0,95,0.00,CLR,,0.00,0.0,WeatherDisplay:10.37,2013-02-24 02:48:00,
2013-02-23 21:53:00,30.2,28.9,29.93,ESE,103,0.0,0.0,95,0.00,CLR,,0.00,0.0,WeatherDisplay:10.37,2013-02-24 02:53:00,
2013-02-23 21:58:00,30.2,29.2,29.93,ESE,113,3.5,3.5,96,0.00,CLR,,0.00,0.0,WeatherDisplay:10.37,2013-02-24 02:58:00,
2013-02-23 22:03:00,30.3,29.3,29.93,ESE,112,0.0,0.0,96,0.00,CLR,,0.00,0.0,WeatherDisplay:10.37,2013-02-24 03:03:00,
2013-02-23 22:08:00,30.3,29.3,29.92,NE,55,0.0,0.0,96,0.00,CLR,,0.00,0.0,WeatherDisplay:10.37,2013-02-24 03:08:00,
2013-02-23 22:13:00,30.3,29.3,29.92,East,90,1.1,1.1,96,0.00,CLR,,0.00,0.0,WeatherDisplay:10.37,2013-02-24 03:13:00,
2013-02-23 22:18:00,30.3,29.3,29.92,ESE,110,3.5,3.5,96,0.00,CLR,,0.00,0.0,WeatherDisplay:10.37,2013-02-24 03:18:00,
2013-02-23 22:23:00,30.3,29.3,29.91,East,92,3.5,3.5,96,0.00,CLR,,0.00,0.0,WeatherDisplay:10.37,2013-02-24 03:23:00,
2013-02-23 22:28:00,30.3,29.3,29.91,East,95,2.3,2.3,96,0.00,CLR,,0.00,0.0,WeatherDisplay:10.37,2013-02-24 03:28:00,
2013-02-23 22:33:00,30.2,29.2,29.91,ESE,117,5.0,5.0,96,0.00,CLR,,0.00,0.0,WeatherDisplay:10.37,2013-02-24 03:33:00,
2013-02-23 22:38:00,30.2,29.2,29.91,ESE,115,0.0,0.0,96,0.00,CLR,,0.00,0.0,WeatherDisplay:10.37,2013-02-24 03:38:00,
2013-02-23 22:43:00,30.2,29.2,29.91,ESE,115,0.0,5.0,96,0.00,CLR,CLR,0.00,0.0,WeatherDisplay:10.37,2013-02-24 03:43:00,
2013-02-23 22:48:00,30.2,29.2,29.90,East,98,3.5,3.5,96,0.00,CLR,,0.00,0.0,WeatherDisplay:10.37,2013-02-24 03:48:00,
2013-02-23 22:53:00,30.2,29.2,29.90,East,96,3.5,3.5,96,0.00,CLR,,0.00,0.0,WeatherDisplay:10.37,2013-02-24 03:53:00,
2013-02-23 22:58:00,30.2,28.9,29.90,ENE,78,3.0,0.0,95,0.00,CLR,,0.00,0.0,WeatherDisplay:10.37,2013-02-24 03:58:00,
2013-02-23 23:03:00,30.1,29.1,29.90,ENE,69,0.0,0.0,96,0.00,CLR,,0.00,0.0,WeatherDisplay:10.37,2013-02-24 04:03:00,
2013-02-23 23:08:00,30.1,29.1,29.90,ENE,71,2.3,2.3,96,0.00,CLR,,0.00,0.0,WeatherDisplay:10.37,2013-02-24 04:08:00,
2013-02-23 23:13:00,30.1,29.1,29.89,East,98,3.0,3.0,96,0.00,CLR,,0.00,0.0,WeatherDisplay:10.37,2013-02-24 04:13:00,
2013-02-23 23:18:00,30.1,29.1,29.89,ENE,63,0.0,0.0,96,0.00,CLR,,0.00,0.0,WeatherDisplay:10.37,2013-02-24 04:18:00,
2013-02-23 23:23:00,30.0,29.0,29.89,ENE,71,2.3,2.3,96,0.00,CLR,,0.00,0.0,WeatherDisplay:10.37,2013-02-24 04:23:00,
2013-02-23 23:28:00,30.0,29.0,29.88,NE,56,3.5,3.5,96,0.00,CLR,,0.00,0.0,WeatherDisplay:10.37,2013-02-24 04:28:00,
2013-02-23 23:33:00,30.0,29.0,29.88,ENE,60,3.5,3.5,96,0.00,CLR,,0.00,0.0,WeatherDisplay:10.37,2013-02-24 04:33:00,
2013-02-23 23:38:00,30.0,29.0,29.88,ENE,66,1.1,1.1,96,0.00,CLR,,0.00,0.0,WeatherDisplay:10.37,2013-02-24 04:38:00,
2013-02-23 23:43:00,30.0,29.0,29.88,East,90,2.3,2.3,96,0.00,CLR,,0.00,0.0,WeatherDisplay:10.37,2013-02-24 04:43:00,
2013-02-23 23:48:00,30.0,29.0,29.88,East,82,3.5,3.5,96,0.00,CLR,,0.00,0.0,WeatherDisplay:10.37,2013-02-24 04:48:00,
2013-02-23 23:53:00,29.9,28.9,29.87,East,82,2.3,2.3,96,0.00,CLR,,0.00,0.0,WeatherDisplay:10.37,2013-02-24 04:53:00,
2013-02-23 23:58:00,30.0,29.0,29.87,East,81,0.0,0.0,96,0.00,CLR,,0.00,0.0,WeatherDisplay:10.37,2013-02-24 04:58:00,